TAF and METAR

Could not understand the following METAR

YPWR 020300Z AUTO 15015KT 9999 // NCD 23/00 Q1022 RF00.0/000.0

TAF for RAAF Woomera

TAF YPWR 012326Z 0200/0218 15014KT CAVOK
Report created 2. des 00:26

between 2. des 01:00 - 2. des 19:00

wind 14 knots from SSE (150°) Clear sky
RAAF Woomera in Australia at 167m

Latest 5 airports